Time;durP1;ratioP1;P1;durP2;ratioP2;P2;SDS_P1;SDS_P2;PMS_P1;PMS_P2;Temp;Humidity;BMP_temperature;BMP_pressure;BME280_temperature;BME280_humidity;BME280_pressure;Samples;Min_cycle;Max_cycle;Signal;HPM_P1;HPM_P2
2024/01/31 00:00:41;;;;;;;16.63;11.10;;;8.80;99.90;;;;;;483346;245;27827;-74
2024/01/31 00:02:42;;;;;;;11.13;9.30;;;8.80;99.90;;;;;;483309;245;28047;-72
2024/01/31 00:04:43;;;;;;;13.87;9.50;;;8.80;99.90;;;;;;483312;245;28161;-73
2024/01/31 00:06:45;;;;;;;15.43;10.40;;;8.80;99.90;;;;;;483260;245;27785;-72
2024/01/31 00:08:46;;;;;;;13.40;10.40;;;8.80;99.90;;;;;;488626;241;28328;-74
2024/01/31 00:10:47;;;;;;;17.30;10.33;;;8.80;99.90;;;;;;493135;241;28267;-75
2024/01/31 00:12:48;;;;;;;15.40;11.00;;;8.80;99.90;;;;;;493143;241;27894;-72
2024/01/31 00:14:50;;;;;;;18.57;11.70;;;8.80;99.90;;;;;;493178;241;27865;-72
2024/01/31 00:16:51;;;;;;;16.70;12.10;;;8.80;99.90;;;;;;493137;241;27820;-72
2024/01/31 00:18:52;;;;;;;17.60;11.93;;;8.80;99.90;;;;;;493218;241;27440;-72
2024/01/31 00:20:53;;;;;;;14.97;10.63;;;8.70;99.90;;;;;;493185;241;27978;-73
2024/01/31 00:22:55;;;;;;;19.37;11.50;;;8.80;99.90;;;;;;493205;241;27937;-72
2024/01/31 00:24:56;;;;;;;18.53;12.10;;;8.70;99.90;;;;;;493179;241;27729;-73
2024/01/31 00:26:57;;;;;;;16.13;10.27;;;8.70;99.90;;;;;;493109;241;28496;-73
2024/01/31 00:28:58;;;;;;;18.07;12.67;;;8.70;99.90;;;;;;493225;241;28296;-72
2024/01/31 00:31:00;;;;;;;14.47;11.50;;;8.70;99.90;;;;;;493187;241;27777;-73
2024/01/31 00:33:01;;;;;;;17.73;12.37;;;8.70;99.90;;;;;;493151;241;27863;-73
2024/01/31 00:35:02;;;;;;;15.80;10.80;;;8.70;99.90;;;;;;493160;241;27897;-72
2024/01/31 00:37:03;;;;;;;20.67;11.53;;;8.70;99.90;;;;;;493180;241;27977;-75
2024/01/31 00:39:05;;;;;;;15.30;11.37;;;8.70;99.90;;;;;;493105;241;27817;-72
2024/01/31 00:41:06;;;;;;;17.20;11.97;;;8.70;99.90;;;;;;493212;241;27785;-73
2024/01/31 00:43:07;;;;;;;17.83;11.50;;;8.70;99.90;;;;;;493164;241;27349;-72
2024/01/31 00:45:09;;;;;;;12.97;10.20;;;8.70;99.90;;;;;;493210;241;28285;-72
2024/01/31 00:47:10;;;;;;;16.43;12.30;;;8.70;99.90;;;;;;493230;241;28227;-74
2024/01/31 00:49:11;;;;;;;17.47;12.13;;;8.70;99.90;;;;;;493246;241;28392;-72
2024/01/31 00:51:12;;;;;;;13.23;9.93;;;8.60;99.90;;;;;;493217;241;27488;-73
2024/01/31 00:53:14;;;;;;;16.50;12.13;;;8.60;99.90;;;;;;493225;241;27824;-72
2024/01/31 00:55:15;;;;;;;14.67;10.60;;;8.60;99.90;;;;;;493226;241;27817;-72
2024/01/31 00:57:16;;;;;;;22.33;12.40;;;8.70;99.90;;;;;;493233;241;27951;-74
2024/01/31 00:59:18;;;;;;;18.83;12.70;;;8.70;99.90;;;;;;493244;241;27918;-73
2024/01/31 01:01:19;;;;;;;14.33;10.97;;;8.60;99.90;;;;;;493223;241;27912;-72
2024/01/31 01:03:20;;;;;;;22.30;15.60;;;8.60;99.90;;;;;;490651;241;27752;-75
2024/01/31 01:05:21;;;;;;;19.43;13.70;;;8.60;99.90;;;;;;486961;244;27480;-72
2024/01/31 01:07:22;;;;;;;17.53;12.47;;;8.60;99.90;;;;;;487060;244;27898;-73
2024/01/31 01:09:24;;;;;;;16.37;11.17;;;8.60;99.90;;;;;;486719;244;27969;-72
2024/01/31 01:11:25;;;;;;;20.90;13.90;;;8.60;99.90;;;;;;487039;244;27631;-72
2024/01/31 01:13:26;;;;;;;17.70;12.90;;;8.60;99.90;;;;;;486984;244;28041;-74
2024/01/31 01:15:27;;;;;;;19.00;12.70;;;8.60;99.90;;;;;;486880;244;28450;-72
2024/01/31 01:17:29;;;;;;;21.30;11.93;;;8.60;99.90;;;;;;487018;244;29008;-72
2024/01/31 01:19:30;;;;;;;13.57;11.13;;;8.60;99.90;;;;;;487063;244;27776;-72
2024/01/31 01:21:31;;;;;;;16.83;11.90;;;8.60;99.90;;;;;;487068;244;27849;-72
2024/01/31 01:23:32;;;;;;;26.23;16.07;;;8.60;99.90;;;;;;487032;244;27942;-73
2024/01/31 01:25:34;;;;;;;17.80;11.40;;;8.60;99.90;;;;;;486994;244;27658;-72
2024/01/31 01:27:35;;;;;;;22.60;14.73;;;8.60;99.90;;;;;;487040;244;27900;-72
2024/01/31 01:29:36;;;;;;;19.90;14.10;;;8.60;99.90;;;;;;487037;244;27969;-75
2024/01/31 01:31:37;;;;;;;22.47;13.60;;;8.60;99.90;;;;;;486974;244;27920;-72
2024/01/31 01:33:39;;;;;;;19.47;12.60;;;8.50;99.90;;;;;;487032;244;28374;-73
2024/01/31 01:35:40;;;;;;;18.70;12.90;;;8.50;99.90;;;;;;486957;244;28109;-72
2024/01/31 01:37:41;;;;;;;20.20;13.60;;;8.50;99.90;;;;;;486949;244;27881;-73
2024/01/31 01:39:45;;;;;;;23.50;15.27;;;8.50;99.90;;;;;;487019;244;27833;-75
2024/01/31 01:41:44;;;;;;;24.17;14.73;;;8.50;99.90;;;;;;486804;244;27930;-72
2024/01/31 01:43:45;;;;;;;25.40;14.60;;;8.50;99.90;;;;;;487006;244;28166;-72
2024/01/31 01:45:46;;;;;;;24.07;14.67;;;8.50;99.90;;;;;;487009;244;28433;-75
2024/01/31 01:47:50;;;;;;;22.00;13.63;;;8.50;99.90;;;;;;487050;244;28420;-72
2024/01/31 01:49:49;;;;;;;21.90;12.97;;;8.50;99.90;;;;;;486903;244;28258;-74
2024/01/31 01:51:50;;;;;;;18.90;14.13;;;8.50;99.90;;;;;;487027;244;27654;-72
2024/01/31 01:53:51;;;;;;;21.90;13.80;;;8.50;99.90;;;;;;487008;244;27981;-72
2024/01/31 01:55:53;;;;;;;23.57;14.57;;;8.50;99.90;;;;;;486938;244;27969;-74
2024/01/31 01:57:54;;;;;;;28.43;16.20;;;8.50;99.90;;;;;;487067;244;27806;-72
2024/01/31 01:59:55;;;;;;;29.60;16.90;;;8.40;99.90;;;;;;486921;244;27779;-71
2024/01/31 02:01:56;;;;;;;27.80;16.77;;;8.40;99.90;;;;;;487014;244;27942;-72
2024/01/31 02:03:58;;;;;;;25.63;16.10;;;8.40;99.90;;;;;;487056;244;28387;-72
2024/01/31 02:05:59;;;;;;;27.73;16.20;;;8.40;99.90;;;;;;487046;244;28577;-72
2024/01/31 02:08:00;;;;;;;24.60;16.00;;;8.40;99.90;;;;;;487058;244;27764;-72
2024/01/31 02:10:01;;;;;;;30.67;18.57;;;8.40;99.90;;;;;;487029;244;27772;-72
2024/01/31 02:12:03;;;;;;;31.00;18.90;;;8.40;99.90;;;;;;487010;244;27975;-72
2024/01/31 02:14:04;;;;;;;28.37;17.27;;;8.40;99.90;;;;;;487068;244;27794;-72
2024/01/31 02:16:05;;;;;;;22.70;14.70;;;8.40;99.90;;;;;;487020;244;27887;-73
2024/01/31 02:18:06;;;;;;;27.53;15.23;;;8.40;99.90;;;;;;487055;244;27379;-72
2024/01/31 02:20:08;;;;;;;22.77;15.77;;;8.40;99.90;;;;;;486969;244;27800;-72
2024/01/31 02:22:09;;;;;;;22.87;15.73;;;8.30;99.90;;;;;;487028;244;28259;-75
2024/01/31 02:24:10;;;;;;;25.17;14.80;;;8.40;99.90;;;;;;486983;244;28376;-72
2024/01/31 02:26:11;;;;;;;22.67;15.30;;;8.40;99.90;;;;;;486937;244;28339;-72
2024/01/31 02:28:13;;;;;;;27.53;17.43;;;8.40;99.90;;;;;;487031;244;27915;-72
2024/01/31 02:30:15;;;;;;;25.30;16.77;;;8.30;99.90;;;;;;487057;244;27974;-72
2024/01/31 02:32:15;;;;;;;26.10;16.43;;;8.30;99.90;;;;;;486954;244;28235;-74
2024/01/31 02:34:18;;;;;;;29.10;18.20;;;8.30;99.90;;;;;;487072;244;28072;-74
2024/01/31 02:36:18;;;;;;;31.87;17.83;;;8.20;99.90;;;;;;486899;244;28367;-73
2024/01/31 02:38:19;;;;;;;27.27;16.17;;;8.10;99.90;;;;;;487068;244;27765;-73
2024/01/31 02:40:22;;;;;;;24.10;13.27;;;8.10;99.90;;;;;;487055;244;27526;-73
2024/01/31 02:42:21;;;;;;;15.50;10.60;;;8.00;99.90;;;;;;486969;244;27901;-73
2024/01/31 02:44:23;;;;;;;14.03;9.37;;;7.90;99.90;;;;;;486891;244;27851;-72
2024/01/31 02:46:24;;;;;;;11.77;8.47;;;7.80;99.90;;;;;;486967;244;27882;-72
2024/01/31 02:48:25;;;;;;;13.60;7.60;;;7.80;99.90;;;;;;487071;244;28352;-74
2024/01/31 02:50:27;;;;;;;10.17;7.27;;;7.70;99.90;;;;;;487063;244;28396;-72
2024/01/31 02:52:28;;;;;;;11.67;7.80;;;7.70;99.90;;;;;;487022;244;28456;-72
2024/01/31 02:54:29;;;;;;;9.30;7.10;;;7.70;99.90;;;;;;487011;244;28417;-72
2024/01/31 02:56:30;;;;;;;9.63;6.50;;;7.70;99.90;;;;;;487012;244;27910;-72
2024/01/31 02:58:31;;;;;;;9.43;7.27;;;7.70;99.90;;;;;;487067;244;28015;-74
2024/01/31 03:00:33;;;;;;;12.40;7.00;;;7.70;99.90;;;;;;487033;244;27859;-72
2024/01/31 03:02:34;;;;;;;8.93;5.80;;;7.70;99.90;;;;;;486894;244;28139;-72
2024/01/31 03:04:35;;;;;;;11.60;6.50;;;7.70;99.90;;;;;;487040;244;27695;-72
2024/01/31 03:06:36;;;;;;;11.80;6.30;;;7.70;99.90;;;;;;487024;244;27935;-72
2024/01/31 03:08:38;;;;;;;8.33;6.17;;;7.70;99.90;;;;;;487004;244;27836;-73
2024/01/31 03:10:44;;;;;;;12.97;6.27;;;7.70;99.90;;;;;;486987;244;27847;-72
2024/01/31 03:12:40;;;;;;;10.80;6.70;;;7.70;99.90;;;;;;486658;244;28360;-72
2024/01/31 03:14:42;;;;;;;10.73;6.17;;;7.60;99.90;;;;;;487045;244;27973;-74
2024/01/31 03:16:43;;;;;;;7.10;5.83;;;7.60;99.90;;;;;;487031;244;28040;-72
2024/01/31 03:18:44;;;;;;;8.43;6.20;;;7.60;99.90;;;;;;486958;244;28466;-73
2024/01/31 03:20:45;;;;;;;8.40;5.70;;;7.60;99.90;;;;;;487025;244;28410;-72
2024/01/31 03:22:46;;;;;;;7.87;6.23;;;7.60;99.90;;;;;;486999;244;28380;-72
2024/01/31 03:24:48;;;;;;;8.30;5.80;;;7.60;99.90;;;;;;487036;244;28359;-73
2024/01/31 03:26:49;;;;;;;8.20;6.00;;;7.60;99.90;;;;;;486928;244;28102;-72
2024/01/31 03:28:50;;;;;;;10.00;5.57;;;7.60;99.90;;;;;;487064;244;27775;-73
2024/01/31 03:30:51;;;;;;;5.83;5.20;;;7.60;99.90;;;;;;487015;244;27949;-72
2024/01/31 03:32:53;;;;;;;7.03;5.60;;;7.70;99.90;;;;;;486910;244;27714;-72
2024/01/31 03:34:54;;;;;;;12.87;5.77;;;7.60;99.90;;;;;;487056;244;27896;-73
2024/01/31 03:36:55;;;;;;;10.23;6.30;;;7.60;99.90;;;;;;486978;244;27993;-72
2024/01/31 03:38:58;;;;;;;8.80;6.00;;;7.60;99.90;;;;;;486940;244;28075;-73
2024/01/31 03:40:58;;;;;;;8.17;5.67;;;7.60;99.90;;;;;;486946;244;27949;-72
2024/01/31 03:42:59;;;;;;;6.60;5.37;;;7.60;99.90;;;;;;487091;244;27858;-72
2024/01/31 03:45:03;;;;;;;6.87;5.00;;;7.60;99.90;;;;;;486997;244;27811;-72
2024/01/31 03:47:02;;;;;;;9.00;5.60;;;7.60;99.90;;;;;;486762;244;27842;-72
2024/01/31 03:49:03;;;;;;;13.03;6.90;;;7.70;99.90;;;;;;487031;244;27863;-72
2024/01/31 03:51:04;;;;;;;8.10;6.63;;;7.60;99.90;;;;;;487024;244;27620;-75
2024/01/31 03:53:05;;;;;;;7.43;5.60;;;7.60;99.90;;;;;;486976;244;28503;-72
2024/01/31 03:55:07;;;;;;;8.67;6.20;;;7.70;99.90;;;;;;487024;244;28125;-72
2024/01/31 03:57:08;;;;;;;7.80;5.90;;;7.70;99.90;;;;;;487010;244;27951;-72
2024/01/31 03:59:09;;;;;;;7.10;6.40;;;7.60;99.90;;;;;;487033;244;28480;-73
2024/01/31 04:01:10;;;;;;;8.33;6.47;;;7.60;99.90;;;;;;487063;244;28501;-74
2024/01/31 04:03:11;;;;;;;11.60;6.53;;;7.50;99.90;;;;;;487055;244;27745;-72
2024/01/31 04:05:13;;;;;;;11.10;6.17;;;7.40;99.90;;;;;;486890;244;27512;-73
2024/01/31 04:07:14;;;;;;;11.60;6.23;;;7.40;99.90;;;;;;486925;244;27745;-73
2024/01/31 04:09:16;;;;;;;10.60;5.30;;;7.30;99.90;;;;;;487066;244;27947;-72
2024/01/31 04:11:16;;;;;;;10.30;6.30;;;7.30;99.90;;;;;;487002;244;27875;-75
2024/01/31 04:13:18;;;;;;;8.20;4.40;;;7.40;99.90;;;;;;487019;244;27946;-72
2024/01/31 04:15:19;;;;;;;7.13;4.97;;;7.30;99.90;;;;;;487016;244;27539;-72
2024/01/31 04:17:20;;;;;;;4.60;3.70;;;7.20;99.90;;;;;;487030;244;27984;-72
2024/01/31 04:19:21;;;;;;;6.50;3.90;;;7.20;99.90;;;;;;487090;244;27944;-72
2024/01/31 04:21:23;;;;;;;4.90;3.47;;;7.00;99.90;;;;;;487048;244;27963;-72
2024/01/31 04:23:24;;;;;;;3.87;3.47;;;7.00;99.90;;;;;;487055;243;27572;-72
2024/01/31 04:25:25;;;;;;;4.53;3.50;;;7.00;99.90;;;;;;486858;244;27691;-72
2024/01/31 04:27:26;;;;;;;3.87;3.20;;;7.10;99.90;;;;;;487075;244;28438;-74
2024/01/31 04:29:28;;;;;;;3.30;2.90;;;7.10;99.90;;;;;;487037;244;28326;-72
2024/01/31 04:31:29;;;;;;;3.50;2.50;;;7.10;99.90;;;;;;487022;244;28240;-72
2024/01/31 04:33:30;;;;;;;3.97;2.70;;;7.00;99.90;;;;;;487041;244;28250;-72
2024/01/31 04:35:32;;;;;;;2.87;2.53;;;7.00;99.90;;;;;;486948;244;27655;-72
2024/01/31 04:37:33;;;;;;;3.80;2.50;;;7.00;99.90;;;;;;487074;244;27543;-75
2024/01/31 04:39:34;;;;;;;4.67;2.90;;;7.00;99.90;;;;;;487041;244;28406;-72
2024/01/31 04:41:35;;;;;;;3.90;2.77;;;6.90;99.90;;;;;;487063;244;27906;-73
2024/01/31 04:43:36;;;;;;;2.57;2.37;;;6.80;99.90;;;;;;487045;244;28510;-72
2024/01/31 04:45:38;;;;;;;6.20;2.53;;;6.80;99.90;;;;;;486971;244;27628;-72
2024/01/31 04:47:39;;;;;;;2.77;2.33;;;6.80;99.90;;;;;;487033;244;28844;-73
2024/01/31 04:49:40;;;;;;;2.63;2.23;;;6.80;99.90;;;;;;487044;244;27494;-72
2024/01/31 04:51:42;;;;;;;3.87;2.10;;;6.80;99.90;;;;;;487016;244;27849;-72
2024/01/31 04:53:43;;;;;;;6.13;2.43;;;6.90;99.90;;;;;;487050;244;28704;-72
2024/01/31 04:55:44;;;;;;;4.43;2.30;;;6.90;99.90;;;;;;487038;244;28638;-72
2024/01/31 04:57:45;;;;;;;2.87;2.00;;;6.90;99.90;;;;;;487004;244;29128;-74
2024/01/31 04:59:46;;;;;;;2.70;2.13;;;6.90;99.90;;;;;;487070;244;28420;-73
2024/01/31 05:01:48;;;;;;;6.40;2.03;;;6.90;99.90;;;;;;487032;244;28882;-72
2024/01/31 05:03:49;;;;;;;4.80;2.50;;;6.90;99.90;;;;;;487055;244;27498;-72
2024/01/31 05:05:50;;;;;;;5.20;2.57;;;6.90;99.90;;;;;;487019;244;27787;-72
2024/01/31 05:07:51;;;;;;;2.78;1.70;;;7.00;99.90;;;;;;487025;244;28840;-72
2024/01/31 05:09:53;;;;;;;2.23;2.00;;;6.90;99.90;;;;;;487000;244;27465;-72
2024/01/31 05:11:54;;;;;;;4.07;2.30;;;6.90;99.90;;;;;;487025;244;27594;-72
2024/01/31 05:13:55;;;;;;;6.57;2.17;;;6.90;99.90;;;;;;487097;244;27448;-74
2024/01/31 05:15:57;;;;;;;3.53;2.20;;;6.90;99.90;;;;;;487016;244;29168;-72
2024/01/31 05:17:58;;;;;;;2.47;2.20;;;6.90;99.90;;;;;;487072;244;28387;-73
2024/01/31 05:19:59;;;;;;;3.00;2.15;;;6.90;99.90;;;;;;487082;244;29160;-72
2024/01/31 05:22:00;;;;;;;6.12;1.85;;;6.90;99.90;;;;;;487053;244;27373;-72
2024/01/31 05:24:02;;;;;;;2.33;2.00;;;6.80;99.90;;;;;;487031;244;27421;-72
2024/01/31 05:26:03;;;;;;;3.60;1.90;;;6.80;99.90;;;;;;486941;244;28518;-71
2024/01/31 05:28:04;;;;;;;2.28;1.98;;;6.80;99.90;;;;;;487055;244;28594;-72
2024/01/31 05:30:06;;;;;;;2.15;1.70;;;6.70;99.90;;;;;;487054;244;27402;-72
2024/01/31 05:32:07;;;;;;;2.20;2.00;;;6.60;99.90;;;;;;486996;244;27512;-72
2024/01/31 05:34:08;;;;;;;3.10;2.57;;;6.60;99.90;;;;;;487054;244;29378;-73
2024/01/31 05:36:09;;;;;;;4.23;2.20;;;6.60;99.90;;;;;;486975;244;29272;-72
2024/01/31 05:38:10;;;;;;;3.07;2.20;;;6.60;99.90;;;;;;487031;244;28723;-72
2024/01/31 05:40:16;;;;;;;2.62;2.15;;;6.60;99.90;;;;;;486966;244;29427;-73
2024/01/31 05:42:13;;;;;;;3.80;2.23;;;6.50;99.90;;;;;;486773;244;27372;-72
2024/01/31 05:44:14;;;;;;;2.40;2.20;;;6.50;99.90;;;;;;487064;244;28567;-72
2024/01/31 05:46:17;;;;;;;2.12;1.95;;;6.50;99.90;;;;;;486965;244;27465;-72
2024/01/31 05:48:17;;;;;;;2.87;2.30;;;6.50;99.90;;;;;;486995;244;27408;-72
2024/01/31 05:50:18;;;;;;;2.25;2.08;;;6.50;99.90;;;;;;487067;244;27441;-73
2024/01/31 05:52:19;;;;;;;6.45;2.42;;;6.50;99.90;;;;;;487079;244;27929;-72
2024/01/31 05:54:20;;;;;;;2.55;2.35;;;6.40;99.90;;;;;;487074;244;27417;-72
2024/01/31 05:56:22;;;;;;;2.53;2.33;;;6.40;99.90;;;;;;487003;244;27569;-71
2024/01/31 05:58:23;;;;;;;3.27;2.70;;;6.30;99.90;;;;;;487094;244;28704;-71
2024/01/31 06:00:24;;;;;;;2.60;2.20;;;6.20;99.90;;;;;;486993;244;28784;-72
2024/01/31 06:02:26;;;;;;;2.45;2.22;;;6.20;99.90;;;;;;486830;244;27449;-71
2024/01/31 06:04:27;;;;;;;2.50;2.30;;;6.20;99.90;;;;;;487059;244;27438;-72
2024/01/31 06:06:28;;;;;;;3.00;2.70;;;6.20;99.90;;;;;;489733;241;28028;-73
2024/01/31 06:08:29;;;;;;;2.42;2.10;;;6.20;99.90;;;;;;493020;241;28713;-72
2024/01/31 06:10:30;;;;;;;4.10;2.45;;;6.20;99.90;;;;;;493025;241;27406;-72
2024/01/31 06:12:32;;;;;;;3.05;2.60;;;6.20;99.90;;;;;;484907;242;27569;-71
2024/01/31 06:14:36;;;;;;;3.08;2.60;;;6.10;99.90;;;;;;484871;245;27544;-72
2024/01/31 06:16:34;;;;;;;6.97;3.10;;;6.20;99.90;;;;;;488584;241;27460;-74
2024/01/31 06:18:37;;;;;;;3.45;3.00;;;6.20;99.90;;;;;;492619;241;28048;-72
2024/01/31 06:20:40;;;;;;;4.90;2.90;;;6.10;99.90;;;;;;492499;241;28048;-73
2024/01/31 06:22:38;;;;;;;4.28;2.80;;;6.10;99.90;;;;;;492456;241;27554;-72
2024/01/31 06:24:39;;;;;;;5.60;3.08;;;6.10;99.90;;;;;;492801;241;27465;-72
2024/01/31 06:26:40;;;;;;;3.72;3.35;;;6.10;99.90;;;;;;492556;241;27530;-73
2024/01/31 06:28:42;;;;;;;3.72;2.90;;;6.10;99.90;;;;;;492795;241;27565;-72
2024/01/31 06:30:53;;;;;;;3.72;2.97;;;6.10;99.90;;;;;;492764;241;27541;-72
2024/01/31 06:32:50;;;;;;;3.22;2.90;;;6.10;99.90;;;;;;492216;241;27555;-72
2024/01/31 06:34:52;;;;;;;3.22;2.92;;;6.00;99.90;;;;;;492625;241;27455;-72
2024/01/31 06:36:53;;;;;;;3.22;2.60;;;5.90;99.90;;;;;;492646;241;27462;-73
2024/01/31 06:38:54;;;;;;;7.62;3.15;;;5.90;99.90;;;;;;492537;241;27993;-72
2024/01/31 06:40:58;;;;;;;3.80;2.65;;;5.80;99.90;;;;;;492642;241;28040;-70
2024/01/31 06:42:56;;;;;;;4.45;2.87;;;5.70;99.90;;;;;;492602;241;27520;-74
2024/01/31 06:44:58;;;;;;;5.75;3.20;;;5.70;99.90;;;;;;492756;241;27510;-72
2024/01/31 06:46:59;;;;;;;8.15;3.10;;;5.60;99.90;;;;;;492660;241;27513;-72
2024/01/31 06:49:00;;;;;;;4.60;2.85;;;5.60;99.90;;;;;;491005;241;27447;-72
2024/01/31 06:51:02;;;;;;;4.10;2.83;;;5.60;99.90;;;;;;484976;245;27560;-72
2024/01/31 06:53:03;;;;;;;3.47;2.65;;;5.50;99.90;;;;;;485022;245;28225;-72
2024/01/31 06:55:04;;;;;;;5.12;4.15;;;5.50;99.90;;;;;;485089;241;27902;-72
2024/01/31 06:57:05;;;;;;;3.37;3.03;;;5.40;99.90;;;;;;484842;245;27528;-72
2024/01/31 06:59:07;;;;;;;3.90;2.90;;;5.40;99.90;;;;;;485034;245;27599;-71
2024/01/31 07:01:08;;;;;;;3.80;3.00;;;5.40;99.90;;;;;;485038;245;27525;-72
2024/01/31 07:03:10;;;;;;;3.78;3.47;;;5.30;99.90;;;;;;485040;245;27542;-73
2024/01/31 07:05:10;;;;;;;4.25;3.20;;;5.30;99.90;;;;;;485000;245;27494;-74
2024/01/31 07:07:12;;;;;;;4.87;3.70;;;5.40;99.90;;;;;;487779;241;27816;-72
2024/01/31 07:09:13;;;;;;;4.85;4.32;;;5.40;99.90;;;;;;493217;241;27958;-74
2024/01/31 07:11:14;;;;;;;5.60;4.22;;;5.40;99.90;;;;;;493176;241;27370;-72
2024/01/31 07:13:15;;;;;;;5.03;3.92;;;5.50;99.90;;;;;;492645;241;27462;-73
2024/01/31 07:15:17;;;;;;;6.25;4.55;;;5.60;99.90;;;;;;493089;241;27435;-72
2024/01/31 07:17:18;;;;;;;10.88;3.90;;;5.50;99.90;;;;;;493041;241;27374;-72
2024/01/31 07:19:19;;;;;;;5.37;3.90;;;5.50;99.90;;;;;;493145;241;27502;-73
2024/01/31 07:21:20;;;;;;;4.32;3.92;;;5.50;99.90;;;;;;493144;241;27364;-73
2024/01/31 07:23:22;;;;;;;4.62;4.07;;;5.40;99.90;;;;;;493077;241;27982;-73
2024/01/31 07:25:23;;;;;;;8.82;3.87;;;5.40;99.90;;;;;;493145;241;27924;-72
2024/01/31 07:27:24;;;;;;;4.47;4.07;;;5.40;99.90;;;;;;493115;241;27364;-72
2024/01/31 07:29:25;;;;;;;6.93;6.12;;;5.40;99.90;;;;;;493143;241;27400;-72
2024/01/31 07:31:27;;;;;;;5.95;4.97;;;5.50;99.90;;;;;;493153;241;27360;-72
2024/01/31 07:33:28;;;;;;;7.05;4.93;;;5.50;99.90;;;;;;493171;241;27450;-72
2024/01/31 07:35:29;;;;;;;6.35;5.10;;;5.50;99.90;;;;;;493155;241;27364;-73
2024/01/31 07:37:30;;;;;;;5.97;5.12;;;5.50;99.90;;;;;;492333;241;27386;-72
2024/01/31 07:39:32;;;;;;;5.32;4.68;;;5.50;99.90;;;;;;493145;241;28006;-73
2024/01/31 07:41:33;;;;;;;5.22;4.72;;;5.60;99.90;;;;;;493050;241;27816;-72
2024/01/31 07:43:34;;;;;;;4.18;3.87;;;5.70;99.90;;;;;;492801;241;27409;-72
2024/01/31 07:45:35;;;;;;;4.03;3.65;;;5.70;99.90;;;;;;492859;241;27478;-76
2024/01/31 07:47:37;;;;;;;2.85;2.60;;;5.80;99.90;;;;;;492570;241;27761;-74
2024/01/31 07:49:38;;;;;;;4.30;2.85;;;5.80;99.90;;;;;;492854;241;27429;-73
2024/01/31 07:51:39;;;;;;;2.95;2.70;;;5.90;99.90;;;;;;492797;241;27430;-73
2024/01/31 07:53:40;;;;;;;4.32;3.37;;;5.90;99.90;;;;;;492999;241;27990;-72
2024/01/31 07:55:42;;;;;;;3.80;3.08;;;5.90;99.90;;;;;;492990;241;28007;-73
2024/01/31 07:57:43;;;;;;;3.00;2.75;;;5.90;99.90;;;;;;492991;241;27361;-73
2024/01/31 07:59:44;;;;;;;3.42;2.87;;;5.90;99.90;;;;;;493117;241;27407;-72
2024/01/31 08:01:45;;;;;;;4.07;2.72;;;5.90;99.90;;;;;;493212;241;27373;-72
2024/01/31 08:03:47;;;;;;;6.57;3.25;;;6.00;99.90;;;;;;493219;241;27440;-72
2024/01/31 08:05:48;;;;;;;4.82;3.10;;;6.00;99.90;;;;;;493231;241;27501;-72
2024/01/31 08:07:49;;;;;;;5.82;2.90;;;6.00;99.90;;;;;;493228;241;27945;-72
2024/01/31 08:09:51;;;;;;;3.15;2.85;;;6.00;99.90;;;;;;493235;241;27958;-72
2024/01/31 08:11:52;;;;;;;4.62;2.85;;;6.10;99.90;;;;;;493258;241;27385;-73
2024/01/31 08:13:53;;;;;;;6.55;3.20;;;6.10;99.90;;;;;;493268;241;27374;-72
2024/01/31 08:15:54;;;;;;;6.93;5.60;;;6.00;99.90;;;;;;493226;241;27415;-72
2024/01/31 08:17:56;;;;;;;4.25;3.60;;;6.20;99.90;;;;;;493234;241;27361;-72
2024/01/31 08:19:57;;;;;;;4.12;3.35;;;6.30;99.90;;;;;;493253;241;27476;-72
2024/01/31 08:21:58;;;;;;;4.75;3.58;;;6.30;99.90;;;;;;493255;241;27888;-74
2024/01/31 08:23:59;;;;;;;5.60;4.10;;;6.40;99.90;;;;;;493265;241;27828;-72
2024/01/31 08:26:01;;;;;;;3.17;2.60;;;6.40;99.90;;;;;;493193;241;27392;-73
2024/01/31 08:28:02;;;;;;;7.85;4.10;;;6.50;99.90;;;;;;493245;241;27444;-72
2024/01/31 08:30:04;;;;;;;6.70;3.75;;;6.50;99.90;;;;;;493266;241;27356;-72
2024/01/31 08:32:04;;;;;;;9.20;7.07;;;6.50;99.90;;;;;;493217;241;27392;-72
2024/01/31 08:34:06;;;;;;;8.63;6.87;;;6.60;99.90;;;;;;493212;241;28701;-72
2024/01/31 08:36:07;;;;;;;11.25;8.75;;;6.70;99.90;;;;;;493153;241;27867;-72
2024/01/31 08:38:08;;;;;;;9.80;7.57;;;6.80;99.90;;;;;;493235;241;27987;-73
2024/01/31 08:40:10;;;;;;;6.67;5.30;;;6.80;99.90;;;;;;493233;241;28169;-72
2024/01/31 08:42:11;;;;;;;4.37;3.43;;;6.90;99.90;;;;;;493035;241;28329;-72
2024/01/31 08:44:12;;;;;;;3.60;3.30;;;7.00;99.90;;;;;;493209;241;28203;-72
2024/01/31 08:46:13;;;;;;;9.80;3.33;;;7.00;99.90;;;;;;493126;241;28780;-73
2024/01/31 08:48:14;;;;;;;5.57;3.03;;;7.00;99.90;;;;;;493234;241;28799;-74
2024/01/31 08:50:16;;;;;;;3.62;2.67;;;7.10;99.90;;;;;;493203;241;27360;-72
2024/01/31 08:52:17;;;;;;;2.87;2.45;;;7.10;99.90;;;;;;493187;241;27400;-72
2024/01/31 08:54:18;;;;;;;3.23;2.93;;;7.20;99.90;;;;;;493096;241;27393;-72
2024/01/31 08:56:19;;;;;;;4.10;2.73;;;7.20;99.90;;;;;;493179;241;27722;-72
2024/01/31 08:58:21;;;;;;;4.73;2.87;;;7.10;99.90;;;;;;493205;241;27800;-73
2024/01/31 09:00:22;;;;;;;3.40;3.03;;;7.10;99.90;;;;;;493177;241;28304;-72
2024/01/31 09:02:23;;;;;;;6.73;3.43;;;7.20;99.90;;;;;;493138;241;28951;-72
2024/01/31 09:04:24;;;;;;;8.53;3.53;;;7.20;99.90;;;;;;493163;241;28403;-74
2024/01/31 09:06:26;;;;;;;3.77;3.00;;;7.10;99.90;;;;;;493209;241;27942;-73
2024/01/31 09:08:27;;;;;;;4.10;3.37;;;7.20;99.90;;;;;;493218;241;28286;-73
2024/01/31 09:10:28;;;;;;;4.43;3.30;;;7.20;99.90;;;;;;493201;241;27824;-72
2024/01/31 09:12:29;;;;;;;3.40;3.10;;;7.20;99.90;;;;;;493184;241;28082;-73
2024/01/31 09:14:31;;;;;;;3.87;2.80;;;7.20;99.90;;;;;;493183;240;27594;-73
2024/01/31 09:16:34;;;;;;;4.80;3.03;;;7.30;99.90;;;;;;493178;241;27876;-72
2024/01/31 09:18:33;;;;;;;10.87;4.80;;;7.40;99.90;;;;;;490348;241;27868;-73
2024/01/31 09:20:34;;;;;;;6.30;3.47;;;7.40;99.90;;;;;;484584;245;28017;-74
2024/01/31 09:22:36;;;;;;;6.27;3.13;;;7.40;99.90;;;;;;484933;245;27775;-72
2024/01/31 09:24:37;;;;;;;5.87;3.47;;;7.40;99.90;;;;;;484749;245;27921;-74
2024/01/31 09:26:38;;;;;;;4.37;2.73;;;7.50;99.90;;;;;;484966;245;27579;-72
2024/01/31 09:28:39;;;;;;;4.40;2.93;;;7.50;99.90;;;;;;484987;245;27907;-72
2024/01/31 09:30:43;;;;;;;5.07;3.23;;;7.50;99.90;;;;;;484968;245;28882;-72
2024/01/31 09:32:42;;;;;;;4.33;3.00;;;7.60;99.90;;;;;;484893;245;28098;-72
2024/01/31 09:34:43;;;;;;;2.87;2.63;;;7.70;99.90;;;;;;485057;245;27956;-73
2024/01/31 09:36:45;;;;;;;2.90;2.67;;;7.70;99.90;;;;;;485019;245;28427;-72
2024/01/31 09:38:49;;;;;;;2.47;2.27;;;7.90;99.90;;;;;;484996;245;28468;-72
2024/01/31 09:40:47;;;;;;;2.53;2.33;;;7.90;99.90;;;;;;484853;245;28214;-74
2024/01/31 09:42:48;;;;;;;2.40;2.20;;;8.00;99.90;;;;;;485085;245;28080;-72
2024/01/31 09:44:49;;;;;;;4.90;2.53;;;8.10;99.90;;;;;;485051;245;28504;-73
2024/01/31 09:46:51;;;;;;;2.20;2.00;;;8.10;99.90;;;;;;484984;245;28545;-72
2024/01/31 09:48:52;;;;;;;3.27;2.20;;;8.10;99.90;;;;;;485061;245;27844;-72
2024/01/31 09:50:53;;;;;;;3.60;2.23;;;8.20;99.90;;;;;;485111;245;27664;-74
2024/01/31 09:52:54;;;;;;;3.77;2.23;;;8.20;99.90;;;;;;485067;245;27734;-73
2024/01/31 09:54:56;;;;;;;3.43;2.10;;;8.20;99.90;;;;;;485071;245;28038;-72
2024/01/31 09:56:57;;;;;;;4.30;2.37;;;8.20;99.90;;;;;;485026;245;27957;-72
2024/01/31 09:58:58;;;;;;;2.20;1.80;;;8.20;99.90;;;;;;485118;245;27619;-72
2024/01/31 10:01:00;;;;;;;5.93;2.10;;;8.20;99.90;;;;;;485084;245;28007;-74
2024/01/31 10:03:01;;;;;;;2.90;1.80;;;8.30;99.90;;;;;;485042;245;27566;-72
2024/01/31 10:05:03;;;;;;;3.93;1.97;;;8.40;99.90;;;;;;485085;245;28411;-74
2024/01/31 10:07:03;;;;;;;1.97;1.87;;;8.40;99.90;;;;;;485018;245;28069;-72
2024/01/31 10:09:06;;;;;;;5.60;2.20;;;8.50;99.90;;;;;;485046;245;28058;-73
2024/01/31 10:11:06;;;;;;;2.57;1.80;;;8.50;99.90;;;;;;484985;245;27966;-73
2024/01/31 10:13:07;;;;;;;2.60;1.90;;;8.50;99.90;;;;;;485078;245;27769;-72
2024/01/31 10:15:09;;;;;;;2.47;2.27;;;8.50;99.90;;;;;;485066;245;27886;-74
2024/01/31 10:17:09;;;;;;;3.83;2.17;;;8.60;99.90;;;;;;485088;245;28578;-74
2024/01/31 10:19:11;;;;;;;2.13;2.03;;;8.60;99.90;;;;;;485093;245;28501;-73
2024/01/31 10:21:12;;;;;;;2.60;2.03;;;8.70;99.90;;;;;;485102;245;28557;-73
2024/01/31 10:23:13;;;;;;;5.03;2.20;;;8.70;99.90;;;;;;485066;245;28374;-72
2024/01/31 10:25:16;;;;;;;2.23;2.03;;;8.70;99.90;;;;;;485018;245;28474;-73
2024/01/31 10:27:17;;;;;;;2.93;2.17;;;8.60;99.90;;;;;;484954;245;27855;-75
2024/01/31 10:29:17;;;;;;;3.63;2.87;;;8.60;99.90;;;;;;485018;245;28040;-72
2024/01/31 10:31:18;;;;;;;8.50;6.27;;;8.80;99.90;;;;;;485062;245;27919;-73
2024/01/31 10:33:20;;;;;;;5.37;4.10;;;8.90;99.90;;;;;;485075;245;27974;-72